Terminal Aerodrome Forecast
Issued by NWS

Home | Current Version | Previous Version | Text Only | Print | Product List | Glossary On
Versions: 1 2 3 4 5 6 7 8 9 10 11 12 13 14 15 16 17 18 19 20 21 22 23 24 25 26 27 28 29 30
000
FTUS46 KOTX 250627 AAA
TAFCOE
TAF AMD
KCOE 250627Z 2506/2606 VRB04KT P6SM VCTS SCT070CB BKN110
      TEMPO 2506/2507 -TSRA
     FM250800 15006KT P6SM -SHRA BKN070 BKN090
     FM251600 25005KT P6SM VCSH SCT070 BKN120
     FM252000 24006KT P6SM VCTS SCT070CB BKN100
      AMD LTD TO CLD AND VIS=

USA.gov is the U.S. government's official web portal to all federal, state and local government web resources and services.